Riverdale, NE (68870)

11:44 PM CST on December 05, 2016 (GMT -0600)
Summit Road | | Change Station

Elev 2306 ft 40.71 °N, 99.14 °W | Updated 6 minutes ago

Overcast
Overcast
27.7 °F
Feels Like 28 °F
N
1.2
Wind Variable Wind from SW
Gusts 4.3 mph

Today
High -- | Low -- °F
--% Chance of Precip.
Yesterday
High -- | Low -- °F
Precip. -- in
Pressure 29.92 in
Visibility 10.0 miles
Clouds Overcast 8000 ft
Windchill 28 °F
Dew Point 17 °F
Humidity 64%
Rainfall 0.01 in
Snow Depth Not available.
7:45 AM 5:08 PM
Waxing Crescent, 38% visible
METAR KEAR 060535Z AUTO 34014KT 10SM OVC080 M02/M11 A2992 RMK AO1
Pressure 29.92 in
Visibility 10.0 miles
Clouds Overcast 8000 ft
Windchill 28 °F
Dew Point 17 °F
Humidity 64%
Rainfall 0.01 in
Snow Depth Not available.
7:45 AM 5:08 PM
Waxing Crescent, 38% visible
METAR KEAR 060535Z AUTO 34014KT 10SM OVC080 M02/M11 A2992 RMK AO1

10-Day Weather Forecast

Almanac

Astronomy

Dec. 05, 2016 Rise Set
Actual Time
Civil Twilight
Nautical Twilight
Astronomical Twilight
Moon
Length of Visible Light
Length of Day
Tomorrow will be .
, % of the Moon is Illuminated

Today's Extremes

State Highs State Lows

Community

WunderPhotos

Upload Photos

1,955,914 photos uploaded!

WunderBlog® & News

Nearby

Air Quality

  Air Quality AQ Index Pollutant
Not available.

Snow Depth

Station Depth Elevation

Earthquake Activity

City Distance Mag. Time & Date
Minimum magnitude displayed is 2.5.

Coastal Water Temperatures

Place Temperature

Stations

Nearby Weather Stations

Station Location Temp. Windchill Dew Point Humidity Wind Precip. Elev Updated Type
                   

Watches & Warnings

There are currently no watches in effect.